sensor_id;sensor_type;location;lat;lon;timestamp;P1;durP1;ratioP1;P2;durP2;ratioP2
19402;SDS011;9837;48.888;8.998;2024-03-29T00:00:20;2.17;;;1.43;;
19402;SDS011;9837;48.888;8.998;2024-03-29T00:02:48;2.43;;;1.47;;
19402;SDS011;9837;48.888;8.998;2024-03-29T00:05:15;3.60;;;1.10;;
19402;SDS011;9837;48.888;8.998;2024-03-29T00:07:41;4.57;;;1.20;;
19402;SDS011;9837;48.888;8.998;2024-03-29T00:10:08;3.87;;;1.17;;
19402;SDS011;9837;48.888;8.998;2024-03-29T00:12:35;2.73;;;1.17;;
19402;SDS011;9837;48.888;8.998;2024-03-29T00:15:01;6.20;;;1.40;;
19402;SDS011;9837;48.888;8.998;2024-03-29T00:17:27;3.03;;;1.13;;
19402;SDS011;9837;48.888;8.998;2024-03-29T00:19:53;2.23;;;1.20;;
19402;SDS011;9837;48.888;8.998;2024-03-29T00:22:21;3.43;;;1.47;;
19402;SDS011;9837;48.888;8.998;2024-03-29T00:24:47;1.80;;;1.40;;
19402;SDS011;9837;48.888;8.998;2024-03-29T00:27:26;4.53;;;1.50;;
19402;SDS011;9837;48.888;8.998;2024-03-29T00:29:54;1.80;;;1.37;;
19402;SDS011;9837;48.888;8.998;2024-03-29T00:32:21;3.13;;;1.53;;
19402;SDS011;9837;48.888;8.998;2024-03-29T00:34:49;1.67;;;1.27;;
19402;SDS011;9837;48.888;8.998;2024-03-29T00:37:18;1.73;;;1.27;;
19402;SDS011;9837;48.888;8.998;2024-03-29T00:39:45;3.10;;;1.60;;
19402;SDS011;9837;48.888;8.998;2024-03-29T00:42:13;1.50;;;1.10;;
19402;SDS011;9837;48.888;8.998;2024-03-29T00:44:41;4.10;;;1.10;;
19402;SDS011;9837;48.888;8.998;2024-03-29T00:47:08;2.20;;;1.47;;
19402;SDS011;9837;48.888;8.998;2024-03-29T00:49:34;1.70;;;1.30;;
19402;SDS011;9837;48.888;8.998;2024-03-29T00:52:00;5.53;;;1.40;;
19402;SDS011;9837;48.888;8.998;2024-03-29T00:54:27;1.27;;;1.17;;
19402;SDS011;9837;48.888;8.998;2024-03-29T00:56:53;2.07;;;1.57;;
19402;SDS011;9837;48.888;8.998;2024-03-29T00:59:19;2.67;;;1.70;;
19402;SDS011;9837;48.888;8.998;2024-03-29T01:01:47;2.23;;;1.30;;
19402;SDS011;9837;48.888;8.998;2024-03-29T01:04:13;1.40;;;1.13;;
19402;SDS011;9837;48.888;8.998;2024-03-29T01:06:39;1.93;;;1.30;;
19402;SDS011;9837;48.888;8.998;2024-03-29T01:09:05;2.37;;;1.30;;
19402;SDS011;9837;48.888;8.998;2024-03-29T01:11:32;1.97;;;1.30;;
19402;SDS011;9837;48.888;8.998;2024-03-29T01:13:57;5.90;;;1.67;;
19402;SDS011;9837;48.888;8.998;2024-03-29T01:16:24;2.47;;;1.50;;
19402;SDS011;9837;48.888;8.998;2024-03-29T01:18:50;1.47;;;1.13;;
19402;SDS011;9837;48.888;8.998;2024-03-29T01:21:17;2.93;;;1.30;;
19402;SDS011;9837;48.888;8.998;2024-03-29T01:23:43;2.13;;;1.20;;
19402;SDS011;9837;48.888;8.998;2024-03-29T01:26:09;1.63;;;1.13;;
19402;SDS011;9837;48.888;8.998;2024-03-29T01:28:39;1.10;;;1.00;;
19402;SDS011;9837;48.888;8.998;2024-03-29T01:31:05;3.00;;;1.30;;
19402;SDS011;9837;48.888;8.998;2024-03-29T01:33:31;1.30;;;1.10;;
19402;SDS011;9837;48.888;8.998;2024-03-29T01:36:01;2.00;;;1.10;;
19402;SDS011;9837;48.888;8.998;2024-03-29T01:38:27;1.93;;;1.20;;
19402;SDS011;9837;48.888;8.998;2024-03-29T01:40:53;1.30;;;1.07;;
19402;SDS011;9837;48.888;8.998;2024-03-29T01:43:19;2.47;;;1.17;;
19402;SDS011;9837;48.888;8.998;2024-03-29T01:45:47;2.03;;;1.53;;
19402;SDS011;9837;48.888;8.998;2024-03-29T01:48:14;1.40;;;0.97;;
19402;SDS011;9837;48.888;8.998;2024-03-29T01:50:41;4.10;;;1.43;;
19402;SDS011;9837;48.888;8.998;2024-03-29T01:53:07;1.60;;;1.10;;
19402;SDS011;9837;48.888;8.998;2024-03-29T01:55:34;1.00;;;0.90;;
19402;SDS011;9837;48.888;8.998;2024-03-29T01:58:00;3.17;;;1.20;;
19402;SDS011;9837;48.888;8.998;2024-03-29T02:00:27;1.37;;;1.10;;
19402;SDS011;9837;48.888;8.998;2024-03-29T02:02:53;1.70;;;1.00;;
19402;SDS011;9837;48.888;8.998;2024-03-29T02:05:19;2.23;;;0.87;;
19402;SDS011;9837;48.888;8.998;2024-03-29T02:07:46;1.53;;;0.97;;
19402;SDS011;9837;48.888;8.998;2024-03-29T02:10:13;1.13;;;1.00;;
19402;SDS011;9837;48.888;8.998;2024-03-29T02:12:40;2.97;;;1.10;;
19402;SDS011;9837;48.888;8.998;2024-03-29T02:15:06;1.13;;;0.90;;
19402;SDS011;9837;48.888;8.998;2024-03-29T02:17:32;1.80;;;1.40;;
19402;SDS011;9837;48.888;8.998;2024-03-29T02:19:58;1.93;;;1.10;;
19402;SDS011;9837;48.888;8.998;2024-03-29T02:22:24;1.80;;;1.30;;
19402;SDS011;9837;48.888;8.998;2024-03-29T02:24:51;1.73;;;0.93;;
19402;SDS011;9837;48.888;8.998;2024-03-29T02:27:17;2.13;;;1.13;;
19402;SDS011;9837;48.888;8.998;2024-03-29T02:29:43;2.03;;;1.10;;
19402;SDS011;9837;48.888;8.998;2024-03-29T02:32:09;1.07;;;1.00;;
19402;SDS011;9837;48.888;8.998;2024-03-29T02:34:35;2.70;;;1.10;;
19402;SDS011;9837;48.888;8.998;2024-03-29T02:37:01;2.17;;;0.93;;
19402;SDS011;9837;48.888;8.998;2024-03-29T02:39:27;1.83;;;0.90;;
19402;SDS011;9837;48.888;8.998;2024-03-29T02:41:53;1.07;;;0.90;;
19402;SDS011;9837;48.888;8.998;2024-03-29T02:44:19;1.37;;;0.80;;
19402;SDS011;9837;48.888;8.998;2024-03-29T02:46:45;0.80;;;0.80;;
19402;SDS011;9837;48.888;8.998;2024-03-29T02:49:11;1.73;;;1.13;;
19402;SDS011;9837;48.888;8.998;2024-03-29T02:51:37;1.13;;;1.00;;
19402;SDS011;9837;48.888;8.998;2024-03-29T02:54:03;3.20;;;1.13;;
19402;SDS011;9837;48.888;8.998;2024-03-29T02:56:29;2.40;;;1.00;;
19402;SDS011;9837;48.888;8.998;2024-03-29T02:58:55;1.20;;;1.10;;
19402;SDS011;9837;48.888;8.998;2024-03-29T03:01:21;1.43;;;0.83;;
19402;SDS011;9837;48.888;8.998;2024-03-29T03:03:47;1.47;;;1.00;;
19402;SDS011;9837;48.888;8.998;2024-03-29T03:06:13;1.17;;;1.07;;
19402;SDS011;9837;48.888;8.998;2024-03-29T03:08:39;1.50;;;1.00;;
19402;SDS011;9837;48.888;8.998;2024-03-29T03:11:24;1.00;;;0.83;;
19402;SDS011;9837;48.888;8.998;2024-03-29T03:13:50;0.83;;;0.70;;
19402;SDS011;9837;48.888;8.998;2024-03-29T03:16:16;1.57;;;0.80;;
19402;SDS011;9837;48.888;8.998;2024-03-29T03:18:41;0.60;;;0.60;;
19402;SDS011;9837;48.888;8.998;2024-03-29T03:21:07;1.40;;;0.70;;
19402;SDS011;9837;48.888;8.998;2024-03-29T03:23:33;1.90;;;1.00;;
19402;SDS011;9837;48.888;8.998;2024-03-29T03:26:00;1.10;;;0.90;;
19402;SDS011;9837;48.888;8.998;2024-03-29T03:28:28;1.13;;;0.90;;
19402;SDS011;9837;48.888;8.998;2024-03-29T03:30:55;5.23;;;1.03;;
19402;SDS011;9837;48.888;8.998;2024-03-29T03:33:21;0.70;;;0.70;;
19402;SDS011;9837;48.888;8.998;2024-03-29T03:35:47;0.80;;;0.80;;
19402;SDS011;9837;48.888;8.998;2024-03-29T03:38:15;3.00;;;1.83;;
19402;SDS011;9837;48.888;8.998;2024-03-29T03:40:41;2.27;;;1.13;;
19402;SDS011;9837;48.888;8.998;2024-03-29T03:43:07;1.67;;;1.40;;
19402;SDS011;9837;48.888;8.998;2024-03-29T03:45:33;1.20;;;1.10;;
19402;SDS011;9837;48.888;8.998;2024-03-29T03:48:00;1.53;;;0.90;;
19402;SDS011;9837;48.888;8.998;2024-03-29T03:50:26;2.00;;;1.10;;
19402;SDS011;9837;48.888;8.998;2024-03-29T03:52:52;2.13;;;1.30;;
19402;SDS011;9837;48.888;8.998;2024-03-29T03:55:18;1.30;;;0.97;;
19402;SDS011;9837;48.888;8.998;2024-03-29T03:57:45;1.40;;;1.10;;
19402;SDS011;9837;48.888;8.998;2024-03-29T04:00:12;1.43;;;0.83;;
19402;SDS011;9837;48.888;8.998;2024-03-29T04:02:38;6.40;;;1.47;;
19402;SDS011;9837;48.888;8.998;2024-03-29T04:05:04;0.80;;;0.80;;
19402;SDS011;9837;48.888;8.998;2024-03-29T04:07:30;0.80;;;0.63;;
19402;SDS011;9837;48.888;8.998;2024-03-29T04:09:56;1.50;;;0.80;;
19402;SDS011;9837;48.888;8.998;2024-03-29T04:12:22;2.30;;;0.90;;
19402;SDS011;9837;48.888;8.998;2024-03-29T04:14:48;1.80;;;1.00;;
19402;SDS011;9837;48.888;8.998;2024-03-29T04:17:14;0.97;;;0.87;;
19402;SDS011;9837;48.888;8.998;2024-03-29T04:19:40;1.13;;;0.83;;
19402;SDS011;9837;48.888;8.998;2024-03-29T04:22:06;1.23;;;1.00;;
19402;SDS011;9837;48.888;8.998;2024-03-29T04:24:32;1.73;;;0.80;;
19402;SDS011;9837;48.888;8.998;2024-03-29T04:26:58;2.00;;;1.00;;
19402;SDS011;9837;48.888;8.998;2024-03-29T04:29:24;0.93;;;0.80;;
19402;SDS011;9837;48.888;8.998;2024-03-29T04:31:50;1.13;;;1.00;;
19402;SDS011;9837;48.888;8.998;2024-03-29T04:34:16;1.77;;;0.70;;
19402;SDS011;9837;48.888;8.998;2024-03-29T04:36:42;0.80;;;0.80;;
19402;SDS011;9837;48.888;8.998;2024-03-29T04:39:08;2.47;;;1.10;;
19402;SDS011;9837;48.888;8.998;2024-03-29T04:41:34;2.70;;;0.97;;
19402;SDS011;9837;48.888;8.998;2024-03-29T04:44:03;0.97;;;0.90;;
19402;SDS011;9837;48.888;8.998;2024-03-29T04:46:30;1.20;;;0.83;;
19402;SDS011;9837;48.888;8.998;2024-03-29T04:48:56;1.27;;;1.17;;
19402;SDS011;9837;48.888;8.998;2024-03-29T04:51:22;0.80;;;0.80;;
19402;SDS011;9837;48.888;8.998;2024-03-29T04:53:48;1.50;;;1.03;;
19402;SDS011;9837;48.888;8.998;2024-03-29T04:56:15;1.33;;;0.80;;
19402;SDS011;9837;48.888;8.998;2024-03-29T04:58:42;1.77;;;0.90;;
19402;SDS011;9837;48.888;8.998;2024-03-29T05:01:08;1.57;;;0.80;;
19402;SDS011;9837;48.888;8.998;2024-03-29T05:03:34;0.80;;;0.80;;
19402;SDS011;9837;48.888;8.998;2024-03-29T05:06:00;1.03;;;0.80;;
19402;SDS011;9837;48.888;8.998;2024-03-29T05:08:26;2.80;;;1.10;;
19402;SDS011;9837;48.888;8.998;2024-03-29T05:10:52;1.03;;;1.00;;
19402;SDS011;9837;48.888;8.998;2024-03-29T05:13:18;1.43;;;1.03;;
19402;SDS011;9837;48.888;8.998;2024-03-29T05:15:47;1.50;;;0.83;;
19402;SDS011;9837;48.888;8.998;2024-03-29T05:18:13;1.23;;;1.03;;
19402;SDS011;9837;48.888;8.998;2024-03-29T05:20:39;1.67;;;1.20;;
19402;SDS011;9837;48.888;8.998;2024-03-29T05:23:13;0.90;;;0.83;;
19402;SDS011;9837;48.888;8.998;2024-03-29T05:25:40;1.80;;;1.20;;
19402;SDS011;9837;48.888;8.998;2024-03-29T05:28:06;1.53;;;1.10;;
19402;SDS011;9837;48.888;8.998;2024-03-29T05:30:32;2.23;;;1.10;;
19402;SDS011;9837;48.888;8.998;2024-03-29T05:33:00;0.80;;;0.80;;
19402;SDS011;9837;48.888;8.998;2024-03-29T05:35:26;1.27;;;1.00;;
19402;SDS011;9837;48.888;8.998;2024-03-29T05:37:52;1.30;;;0.93;;
19402;SDS011;9837;48.888;8.998;2024-03-29T05:40:19;1.43;;;1.00;;
19402;SDS011;9837;48.888;8.998;2024-03-29T05:42:50;1.17;;;1.00;;
19402;SDS011;9837;48.888;8.998;2024-03-29T05:45:23;0.87;;;0.70;;
19402;SDS011;9837;48.888;8.998;2024-03-29T05:47:53;1.03;;;0.93;;
19402;SDS011;9837;48.888;8.998;2024-03-29T05:50:20;0.50;;;0.50;;
19402;SDS011;9837;48.888;8.998;2024-03-29T05:52:46;0.83;;;0.80;;
19402;SDS011;9837;48.888;8.998;2024-03-29T05:55:12;0.87;;;0.87;;
19402;SDS011;9837;48.888;8.998;2024-03-29T05:57:38;0.90;;;0.70;;
19402;SDS011;9837;48.888;8.998;2024-03-29T06:00:06;0.80;;;0.80;;
19402;SDS011;9837;48.888;8.998;2024-03-29T06:02:34;0.70;;;0.70;;
19402;SDS011;9837;48.888;8.998;2024-03-29T06:05:00;1.00;;;0.90;;
19402;SDS011;9837;48.888;8.998;2024-03-29T06:07:25;1.10;;;1.00;;
19402;SDS011;9837;48.888;8.998;2024-03-29T06:09:55;1.27;;;1.10;;
19402;SDS011;9837;48.888;8.998;2024-03-29T06:12:21;0.93;;;0.90;;
19402;SDS011;9837;48.888;8.998;2024-03-29T06:14:47;1.80;;;0.90;;
19402;SDS011;9837;48.888;8.998;2024-03-29T06:17:31;2.13;;;1.13;;
19402;SDS011;9837;48.888;8.998;2024-03-29T06:19:57;1.97;;;1.40;;
19402;SDS011;9837;48.888;8.998;2024-03-29T06:22:27;1.40;;;0.97;;
19402;SDS011;9837;48.888;8.998;2024-03-29T06:24:55;1.10;;;0.90;;
19402;SDS011;9837;48.888;8.998;2024-03-29T06:27:24;1.30;;;0.87;;
19402;SDS011;9837;48.888;8.998;2024-03-29T06:29:50;0.97;;;0.97;;
19402;SDS011;9837;48.888;8.998;2024-03-29T06:32:16;1.03;;;0.83;;
19402;SDS011;9837;48.888;8.998;2024-03-29T06:34:43;1.17;;;0.80;;
19402;SDS011;9837;48.888;8.998;2024-03-29T06:37:09;2.23;;;1.13;;
19402;SDS011;9837;48.888;8.998;2024-03-29T06:39:35;0.87;;;0.87;;
19402;SDS011;9837;48.888;8.998;2024-03-29T06:42:01;0.73;;;0.73;;
19402;SDS011;9837;48.888;8.998;2024-03-29T06:44:27;1.40;;;0.90;;
19402;SDS011;9837;48.888;8.998;2024-03-29T06:46:53;1.23;;;0.80;;
19402;SDS011;9837;48.888;8.998;2024-03-29T06:49:19;0.93;;;0.80;;
19402;SDS011;9837;48.888;8.998;2024-03-29T06:51:45;1.73;;;1.10;;
19402;SDS011;9837;48.888;8.998;2024-03-29T06:54:11;1.00;;;0.70;;
19402;SDS011;9837;48.888;8.998;2024-03-29T06:56:37;0.93;;;0.73;;
19402;SDS011;9837;48.888;8.998;2024-03-29T06:59:03;1.60;;;1.10;;
19402;SDS011;9837;48.888;8.998;2024-03-29T07:01:29;3.70;;;0.90;;
19402;SDS011;9837;48.888;8.998;2024-03-29T07:03:55;1.87;;;1.00;;
19402;SDS011;9837;48.888;8.998;2024-03-29T07:06:21;1.43;;;0.90;;
19402;SDS011;9837;48.888;8.998;2024-03-29T07:08:47;1.37;;;1.00;;
19402;SDS011;9837;48.888;8.998;2024-03-29T07:11:13;0.73;;;0.73;;
19402;SDS011;9837;48.888;8.998;2024-03-29T07:13:38;1.13;;;0.90;;
19402;SDS011;9837;48.888;8.998;2024-03-29T07:16:04;1.10;;;0.90;;
19402;SDS011;9837;48.888;8.998;2024-03-29T07:18:31;1.10;;;1.00;;
19402;SDS011;9837;48.888;8.998;2024-03-29T07:20:57;1.13;;;0.80;;
19402;SDS011;9837;48.888;8.998;2024-03-29T07:23:23;1.10;;;0.73;;
19402;SDS011;9837;48.888;8.998;2024-03-29T07:25:59;2.70;;;1.00;;
19402;SDS011;9837;48.888;8.998;2024-03-29T07:28:29;2.13;;;1.07;;
19402;SDS011;9837;48.888;8.998;2024-03-29T07:30:55;3.97;;;1.20;;
19402;SDS011;9837;48.888;8.998;2024-03-29T07:33:22;3.07;;;1.23;;
19402;SDS011;9837;48.888;8.998;2024-03-29T07:35:51;1.00;;;1.00;;
19402;SDS011;9837;48.888;8.998;2024-03-29T07:38:18;2.67;;;1.30;;
19402;SDS011;9837;48.888;8.998;2024-03-29T07:40:45;3.07;;;1.47;;
19402;SDS011;9837;48.888;8.998;2024-03-29T07:43:11;2.33;;;1.10;;
19402;SDS011;9837;48.888;8.998;2024-03-29T07:45:39;1.83;;;1.07;;
19402;SDS011;9837;48.888;8.998;2024-03-29T07:48:07;4.10;;;1.40;;
19402;SDS011;9837;48.888;8.998;2024-03-29T07:50:33;2.03;;;1.37;;
19402;SDS011;9837;48.888;8.998;2024-03-29T07:52:59;1.73;;;1.20;;
19402;SDS011;9837;48.888;8.998;2024-03-29T07:55:24;1.70;;;1.37;;
19402;SDS011;9837;48.888;8.998;2024-03-29T07:57:50;4.57;;;1.20;;
19402;SDS011;9837;48.888;8.998;2024-03-29T08:00:16;2.53;;;1.47;;
19402;SDS011;9837;48.888;8.998;2024-03-29T08:02:42;2.60;;;1.30;;
19402;SDS011;9837;48.888;8.998;2024-03-29T08:05:09;1.27;;;1.10;;
19402;SDS011;9837;48.888;8.998;2024-03-29T08:07:35;1.30;;;1.17;;
19402;SDS011;9837;48.888;8.998;2024-03-29T08:10:01;4.10;;;1.30;;
19402;SDS011;9837;48.888;8.998;2024-03-29T08:12:27;1.10;;;1.00;;
19402;SDS011;9837;48.888;8.998;2024-03-29T08:14:53;2.83;;;1.80;;
19402;SDS011;9837;48.888;8.998;2024-03-29T08:17:19;1.40;;;1.30;;
19402;SDS011;9837;48.888;8.998;2024-03-29T08:19:46;2.23;;;1.30;;
19402;SDS011;9837;48.888;8.998;2024-03-29T08:22:13;2.43;;;1.43;;
19402;SDS011;9837;48.888;8.998;2024-03-29T08:24:39;3.60;;;1.50;;
19402;SDS011;9837;48.888;8.998;2024-03-29T08:27:05;2.50;;;1.70;;
19402;SDS011;9837;48.888;8.998;2024-03-29T08:29:31;3.60;;;1.30;;
19402;SDS011;9837;48.888;8.998;2024-03-29T08:37:20;1.53;;;1.30;;
19402;SDS011;9837;48.888;8.998;2024-03-29T08:39:46;1.73;;;1.50;;
19402;SDS011;9837;48.888;8.998;2024-03-29T08:42:12;1.80;;;1.07;;
19402;SDS011;9837;48.888;8.998;2024-03-29T08:44:38;10.60;;;3.17;;
19402;SDS011;9837;48.888;8.998;2024-03-29T08:47:05;6.90;;;4.27;;
19402;SDS011;9837;48.888;8.998;2024-03-29T08:49:31;1.73;;;1.63;;
19402;SDS011;9837;48.888;8.998;2024-03-29T08:51:57;3.33;;;1.10;;
19402;SDS011;9837;48.888;8.998;2024-03-29T08:54:25;1.10;;;1.00;;
19402;SDS011;9837;48.888;8.998;2024-03-29T08:56:53;6.73;;;1.90;;
19402;SDS011;9837;48.888;8.998;2024-03-29T08:59:19;4.07;;;1.73;;
19402;SDS011;9837;48.888;8.998;2024-03-29T09:01:45;2.83;;;2.30;;
19402;SDS011;9837;48.888;8.998;2024-03-29T09:04:13;2.30;;;1.50;;
19402;SDS011;9837;48.888;8.998;2024-03-29T09:06:40;1.23;;;1.13;;
19402;SDS011;9837;48.888;8.998;2024-03-29T09:09:06;2.03;;;1.50;;
19402;SDS011;9837;48.888;8.998;2024-03-29T09:11:33;1.83;;;1.50;;
19402;SDS011;9837;48.888;8.998;2024-03-29T09:13:59;4.73;;;1.20;;
19402;SDS011;9837;48.888;8.998;2024-03-29T09:16:26;4.20;;;1.90;;
19402;SDS011;9837;48.888;8.998;2024-03-29T09:18:53;2.40;;;1.40;;
19402;SDS011;9837;48.888;8.998;2024-03-29T09:21:19;2.63;;;1.30;;
19402;SDS011;9837;48.888;8.998;2024-03-29T09:23:45;2.63;;;1.53;;
19402;SDS011;9837;48.888;8.998;2024-03-29T09:26:13;1.83;;;1.20;;
19402;SDS011;9837;48.888;8.998;2024-03-29T09:28:39;2.67;;;1.10;;
19402;SDS011;9837;48.888;8.998;2024-03-29T09:31:06;2.57;;;1.27;;
19402;SDS011;9837;48.888;8.998;2024-03-29T09:33:32;1.33;;;1.00;;
19402;SDS011;9837;48.888;8.998;2024-03-29T09:35:58;1.63;;;1.07;;
19402;SDS011;9837;48.888;8.998;2024-03-29T09:38:25;3.30;;;2.13;;
19402;SDS011;9837;48.888;8.998;2024-03-29T09:40:57;4.53;;;3.50;;
19402;SDS011;9837;48.888;8.998;2024-03-29T09:43:30;1.60;;;1.50;;
19402;SDS011;9837;48.888;8.998;2024-03-29T09:45:56;2.03;;;1.50;;
19402;SDS011;9837;48.888;8.998;2024-03-29T09:48:22;2.23;;;1.30;;
19402;SDS011;9837;48.888;8.998;2024-03-29T09:50:49;3.47;;;1.23;;
19402;SDS011;9837;48.888;8.998;2024-03-29T09:53:15;2.30;;;1.60;;
19402;SDS011;9837;48.888;8.998;2024-03-29T09:55:45;4.50;;;1.43;;
19402;SDS011;9837;48.888;8.998;2024-03-29T09:58:12;1.17;;;1.03;;
19402;SDS011;9837;48.888;8.998;2024-03-29T10:00:38;2.40;;;1.50;;
19402;SDS011;9837;48.888;8.998;2024-03-29T10:03:05;2.87;;;1.93;;
19402;SDS011;9837;48.888;8.998;2024-03-29T10:05:32;5.57;;;3.87;;
19402;SDS011;9837;48.888;8.998;2024-03-29T10:07:59;3.40;;;2.10;;
19402;SDS011;9837;48.888;8.998;2024-03-29T10:10:30;2.30;;;1.50;;
19402;SDS011;9837;48.888;8.998;2024-03-29T10:12:57;2.07;;;1.60;;
19402;SDS011;9837;48.888;8.998;2024-03-29T10:15:23;2.30;;;1.90;;
19402;SDS011;9837;48.888;8.998;2024-03-29T10:17:52;2.50;;;1.60;;
19402;SDS011;9837;48.888;8.998;2024-03-29T10:20:18;3.57;;;1.90;;
19402;SDS011;9837;48.888;8.998;2024-03-29T10:22:44;1.50;;;1.40;;
19402;SDS011;9837;48.888;8.998;2024-03-29T10:25:12;2.53;;;1.70;;
19402;SDS011;9837;48.888;8.998;2024-03-29T10:27:38;2.03;;;1.50;;
19402;SDS011;9837;48.888;8.998;2024-03-29T10:30:08;3.10;;;1.73;;
19402;SDS011;9837;48.888;8.998;2024-03-29T10:32:38;3.33;;;1.50;;
19402;SDS011;9837;48.888;8.998;2024-03-29T10:35:08;2.97;;;1.60;;
19402;SDS011;9837;48.888;8.998;2024-03-29T10:37:34;2.67;;;1.80;;
19402;SDS011;9837;48.888;8.998;2024-03-29T10:40:12;2.50;;;1.70;;
19402;SDS011;9837;48.888;8.998;2024-03-29T10:42:42;8.10;;;1.83;;
19402;SDS011;9837;48.888;8.998;2024-03-29T10:45:09;3.07;;;1.97;;
19402;SDS011;9837;48.888;8.998;2024-03-29T10:47:35;4.83;;;2.40;;
19402;SDS011;9837;48.888;8.998;2024-03-29T10:50:01;3.70;;;1.97;;
19402;SDS011;9837;48.888;8.998;2024-03-29T10:52:30;4.73;;;1.90;;
19402;SDS011;9837;48.888;8.998;2024-03-29T10:54:56;3.10;;;1.77;;
19402;SDS011;9837;48.888;8.998;2024-03-29T10:57:22;4.37;;;2.30;;
19402;SDS011;9837;48.888;8.998;2024-03-29T11:02:35;4.27;;;2.70;;
19402;SDS011;9837;48.888;8.998;2024-03-29T11:05:05;4.70;;;2.53;;
19402;SDS011;9837;48.888;8.998;2024-03-29T11:07:35;3.60;;;2.13;;
19402;SDS011;9837;48.888;8.998;2024-03-29T11:10:07;2.97;;;2.20;;
19402;SDS011;9837;48.888;8.998;2024-03-29T11:12:41;3.30;;;2.73;;
19402;SDS011;9837;48.888;8.998;2024-03-29T11:15:22;6.63;;;2.80;;
19402;SDS011;9837;48.888;8.998;2024-03-29T11:17:54;5.20;;;2.70;;
19402;SDS011;9837;48.888;8.998;2024-03-29T11:20:21;4.33;;;3.23;;
19402;SDS011;9837;48.888;8.998;2024-03-29T11:22:58;3.67;;;2.53;;
19402;SDS011;9837;48.888;8.998;2024-03-29T11:25:24;3.80;;;2.33;;
19402;SDS011;9837;48.888;8.998;2024-03-29T11:27:50;3.07;;;2.20;;
19402;SDS011;9837;48.888;8.998;2024-03-29T11:30:18;3.63;;;1.80;;
19402;SDS011;9837;48.888;8.998;2024-03-29T11:32:44;2.53;;;1.87;;
19402;SDS011;9837;48.888;8.998;2024-03-29T11:35:14;3.83;;;2.20;;
19402;SDS011;9837;48.888;8.998;2024-03-29T11:37:40;3.10;;;1.87;;
19402;SDS011;9837;48.888;8.998;2024-03-29T11:40:06;3.77;;;2.30;;
19402;SDS011;9837;48.888;8.998;2024-03-29T11:42:37;2.70;;;2.00;;
19402;SDS011;9837;48.888;8.998;2024-03-29T11:45:08;4.00;;;2.27;;
19402;SDS011;9837;48.888;8.998;2024-03-29T11:47:35;4.50;;;2.10;;
19402;SDS011;9837;48.888;8.998;2024-03-29T11:50:03;4.97;;;3.50;;
19402;SDS011;9837;48.888;8.998;2024-03-29T11:52:29;8.23;;;4.30;;
19402;SDS011;9837;48.888;8.998;2024-03-29T11:54:54;8.33;;;3.90;;
19402;SDS011;9837;48.888;8.998;2024-03-29T11:57:20;4.03;;;2.57;;
19402;SDS011;9837;48.888;8.998;2024-03-29T11:59:47;5.57;;;2.50;;
19402;SDS011;9837;48.888;8.998;2024-03-29T12:02:14;5.23;;;2.93;;
19402;SDS011;9837;48.888;8.998;2024-03-29T12:04:41;2.60;;;2.23;;
19402;SDS011;9837;48.888;8.998;2024-03-29T12:07:07;5.50;;;2.40;;
19402;SDS011;9837;48.888;8.998;2024-03-29T12:09:32;2.90;;;1.80;;
19402;SDS011;9837;48.888;8.998;2024-03-29T12:11:58;4.17;;;2.20;;
19402;SDS011;9837;48.888;8.998;2024-03-29T12:14:31;2.73;;;2.00;;
19402;SDS011;9837;48.888;8.998;2024-03-29T12:17:00;3.27;;;2.33;;
19402;SDS011;9837;48.888;8.998;2024-03-29T12:19:26;3.97;;;2.00;;
19402;SDS011;9837;48.888;8.998;2024-03-29T12:21:52;4.20;;;2.20;;
19402;SDS011;9837;48.888;8.998;2024-03-29T12:24:18;3.27;;;1.83;;
19402;SDS011;9837;48.888;8.998;2024-03-29T12:26:44;3.30;;;2.43;;
19402;SDS011;9837;48.888;8.998;2024-03-29T12:29:10;4.43;;;2.30;;
19402;SDS011;9837;48.888;8.998;2024-03-29T12:31:35;2.17;;;1.93;;
19402;SDS011;9837;48.888;8.998;2024-03-29T12:34:04;2.73;;;2.33;;
19402;SDS011;9837;48.888;8.998;2024-03-29T12:36:31;3.30;;;2.30;;
19402;SDS011;9837;48.888;8.998;2024-03-29T12:38:58;4.13;;;1.87;;
19402;SDS011;9837;48.888;8.998;2024-03-29T12:41:28;2.90;;;2.00;;
19402;SDS011;9837;48.888;8.998;2024-03-29T12:43:54;3.53;;;2.00;;
19402;SDS011;9837;48.888;8.998;2024-03-29T12:46:20;3.63;;;2.60;;
19402;SDS011;9837;48.888;8.998;2024-03-29T12:48:46;3.17;;;2.40;;
19402;SDS011;9837;48.888;8.998;2024-03-29T12:51:12;2.77;;;2.20;;
19402;SDS011;9837;48.888;8.998;2024-03-29T12:53:38;4.23;;;2.10;;
19402;SDS011;9837;48.888;8.998;2024-03-29T12:56:04;1.83;;;1.60;;
19402;SDS011;9837;48.888;8.998;2024-03-29T12:58:31;3.33;;;2.30;;
19402;SDS011;9837;48.888;8.998;2024-03-29T13:00:57;4.23;;;2.47;;
19402;SDS011;9837;48.888;8.998;2024-03-29T13:03:22;4.63;;;2.50;;
19402;SDS011;9837;48.888;8.998;2024-03-29T13:05:48;5.27;;;2.10;;
19402;SDS011;9837;48.888;8.998;2024-03-29T13:08:14;3.30;;;2.50;;
19402;SDS011;9837;48.888;8.998;2024-03-29T13:10:41;4.60;;;2.43;;
19402;SDS011;9837;48.888;8.998;2024-03-29T13:13:07;3.03;;;2.00;;
19402;SDS011;9837;48.888;8.998;2024-03-29T13:15:34;3.53;;;2.20;;
19402;SDS011;9837;48.888;8.998;2024-03-29T13:18:01;2.60;;;1.90;;
19402;SDS011;9837;48.888;8.998;2024-03-29T13:20:28;2.03;;;1.50;;
19402;SDS011;9837;48.888;8.998;2024-03-29T13:22:54;1.50;;;1.40;;
19402;SDS011;9837;48.888;8.998;2024-03-29T13:25:21;1.90;;;1.70;;
19402;SDS011;9837;48.888;8.998;2024-03-29T13:27:51;2.70;;;1.40;;
19402;SDS011;9837;48.888;8.998;2024-03-29T13:30:18;2.03;;;1.73;;
19402;SDS011;9837;48.888;8.998;2024-03-29T13:32:44;4.13;;;2.20;;
19402;SDS011;9837;48.888;8.998;2024-03-29T13:35:10;3.27;;;1.90;;
19402;SDS011;9837;48.888;8.998;2024-03-29T13:37:37;2.33;;;1.50;;
19402;SDS011;9837;48.888;8.998;2024-03-29T13:40:13;1.40;;;1.30;;
19402;SDS011;9837;48.888;8.998;2024-03-29T13:42:39;1.50;;;1.27;;
19402;SDS011;9837;48.888;8.998;2024-03-29T13:45:05;3.30;;;1.20;;
19402;SDS011;9837;48.888;8.998;2024-03-29T13:47:33;2.33;;;1.80;;
19402;SDS011;9837;48.888;8.998;2024-03-29T13:49:59;2.10;;;1.40;;
19402;SDS011;9837;48.888;8.998;2024-03-29T13:52:24;2.20;;;1.20;;
19402;SDS011;9837;48.888;8.998;2024-03-29T13:54:52;0.90;;;0.87;;
19402;SDS011;9837;48.888;8.998;2024-03-29T13:57:18;1.80;;;1.20;;
19402;SDS011;9837;48.888;8.998;2024-03-29T13:59:44;1.07;;;0.90;;
19402;SDS011;9837;48.888;8.998;2024-03-29T14:02:17;1.00;;;0.90;;
19402;SDS011;9837;48.888;8.998;2024-03-29T14:04:44;1.30;;;1.20;;
19402;SDS011;9837;48.888;8.998;2024-03-29T14:07:10;1.97;;;1.00;;
19402;SDS011;9837;48.888;8.998;2024-03-29T14:09:43;2.63;;;1.00;;
19402;SDS011;9837;48.888;8.998;2024-03-29T14:12:10;1.70;;;1.03;;
19402;SDS011;9837;48.888;8.998;2024-03-29T14:14:36;1.13;;;0.77;;
19402;SDS011;9837;48.888;8.998;2024-03-29T14:17:02;1.30;;;0.80;;
19402;SDS011;9837;48.888;8.998;2024-03-29T14:19:40;3.07;;;0.83;;
19402;SDS011;9837;48.888;8.998;2024-03-29T14:22:06;5.07;;;1.30;;
19402;SDS011;9837;48.888;8.998;2024-03-29T14:24:33;1.30;;;0.93;;
19402;SDS011;9837;48.888;8.998;2024-03-29T14:27:04;2.87;;;1.00;;
19402;SDS011;9837;48.888;8.998;2024-03-29T14:29:30;2.93;;;1.50;;
19402;SDS011;9837;48.888;8.998;2024-03-29T14:31:56;2.63;;;1.60;;
19402;SDS011;9837;48.888;8.998;2024-03-29T14:34:22;3.70;;;2.00;;
19402;SDS011;9837;48.888;8.998;2024-03-29T14:36:47;3.10;;;1.60;;
19402;SDS011;9837;48.888;8.998;2024-03-29T14:39:13;1.80;;;1.30;;
19402;SDS011;9837;48.888;8.998;2024-03-29T14:41:40;1.37;;;1.20;;
19402;SDS011;9837;48.888;8.998;2024-03-29T14:44:06;1.40;;;1.30;;
19402;SDS011;9837;48.888;8.998;2024-03-29T14:46:33;3.37;;;1.30;;
19402;SDS011;9837;48.888;8.998;2024-03-29T14:49:01;1.63;;;1.50;;
19402;SDS011;9837;48.888;8.998;2024-03-29T14:51:31;0.93;;;0.90;;
19402;SDS011;9837;48.888;8.998;2024-03-29T14:53:57;1.83;;;1.17;;
19402;SDS011;9837;48.888;8.998;2024-03-29T14:56:22;2.50;;;0.70;;
19402;SDS011;9837;48.888;8.998;2024-03-29T14:58:48;1.47;;;1.20;;
19402;SDS011;9837;48.888;8.998;2024-03-29T15:01:13;1.20;;;1.10;;
19402;SDS011;9837;48.888;8.998;2024-03-29T15:03:39;1.10;;;1.00;;
19402;SDS011;9837;48.888;8.998;2024-03-29T15:06:05;1.90;;;1.00;;